sensor_id;sensor_type;location;lat;lon;timestamp;P1;durP1;ratioP1;P2;durP2;ratioP2
48623;SDS011;75490;45.802;16.114;2024-01-11T00:00:09;69.70;;;36.57;;
48623;SDS011;75490;45.802;16.114;2024-01-11T00:02:36;86.07;;;38.17;;
48623;SDS011;75490;45.802;16.114;2024-01-11T00:05:03;75.27;;;34.63;;
48623;SDS011;75490;45.802;16.114;2024-01-11T00:07:30;77.23;;;37.93;;
48623;SDS011;75490;45.802;16.114;2024-01-11T00:09:57;79.77;;;38.50;;
48623;SDS011;75490;45.802;16.114;2024-01-11T00:12:24;76.17;;;33.73;;
48623;SDS011;75490;45.802;16.114;2024-01-11T00:14:50;74.17;;;38.37;;
48623;SDS011;75490;45.802;16.114;2024-01-11T00:17:17;67.13;;;31.93;;
48623;SDS011;75490;45.802;16.114;2024-01-11T00:19:44;77.83;;;37.50;;
48623;SDS011;75490;45.802;16.114;2024-01-11T00:22:11;71.27;;;33.73;;
48623;SDS011;75490;45.802;16.114;2024-01-11T00:24:38;77.63;;;33.73;;
48623;SDS011;75490;45.802;16.114;2024-01-11T00:27:04;78.07;;;36.87;;
48623;SDS011;75490;45.802;16.114;2024-01-11T00:29:31;70.60;;;36.10;;
48623;SDS011;75490;45.802;16.114;2024-01-11T00:31:58;74.10;;;39.37;;
48623;SDS011;75490;45.802;16.114;2024-01-11T00:34:25;97.73;;;40.67;;
48623;SDS011;75490;45.802;16.114;2024-01-11T00:36:51;77.63;;;38.10;;
48623;SDS011;75490;45.802;16.114;2024-01-11T00:39:18;88.93;;;39.97;;
48623;SDS011;75490;45.802;16.114;2024-01-11T00:41:45;75.70;;;36.23;;
48623;SDS011;75490;45.802;16.114;2024-01-11T00:44:12;74.20;;;34.10;;
48623;SDS011;75490;45.802;16.114;2024-01-11T00:46:39;75.10;;;36.03;;
48623;SDS011;75490;45.802;16.114;2024-01-11T00:49:07;79.10;;;38.03;;
48623;SDS011;75490;45.802;16.114;2024-01-11T00:51:34;81.43;;;40.30;;
48623;SDS011;75490;45.802;16.114;2024-01-11T00:54:01;81.93;;;37.63;;
48623;SDS011;75490;45.802;16.114;2024-01-11T00:56:27;73.50;;;36.33;;
48623;SDS011;75490;45.802;16.114;2024-01-11T00:58:54;72.90;;;33.30;;
48623;SDS011;75490;45.802;16.114;2024-01-11T01:01:21;77.07;;;39.67;;
48623;SDS011;75490;45.802;16.114;2024-01-11T01:03:48;80.93;;;36.93;;
48623;SDS011;75490;45.802;16.114;2024-01-11T01:06:15;74.57;;;36.70;;
48623;SDS011;75490;45.802;16.114;2024-01-11T01:08:42;75.80;;;34.50;;
48623;SDS011;75490;45.802;16.114;2024-01-11T01:11:09;74.57;;;37.43;;
48623;SDS011;75490;45.802;16.114;2024-01-11T01:13:36;74.87;;;36.20;;
48623;SDS011;75490;45.802;16.114;2024-01-11T01:16:03;61.80;;;35.23;;
48623;SDS011;75490;45.802;16.114;2024-01-11T01:18:30;70.23;;;35.37;;
48623;SDS011;75490;45.802;16.114;2024-01-11T01:20:57;70.90;;;36.03;;
48623;SDS011;75490;45.802;16.114;2024-01-11T01:23:23;68.90;;;35.00;;
48623;SDS011;75490;45.802;16.114;2024-01-11T01:25:50;72.87;;;35.13;;
48623;SDS011;75490;45.802;16.114;2024-01-11T01:28:18;72.63;;;35.20;;
48623;SDS011;75490;45.802;16.114;2024-01-11T01:30:45;75.97;;;35.73;;
48623;SDS011;75490;45.802;16.114;2024-01-11T01:33:12;67.97;;;32.77;;
48623;SDS011;75490;45.802;16.114;2024-01-11T01:35:38;83.23;;;35.87;;
48623;SDS011;75490;45.802;16.114;2024-01-11T01:38:05;64.93;;;33.63;;
48623;SDS011;75490;45.802;16.114;2024-01-11T01:40:32;75.97;;;37.20;;
48623;SDS011;75490;45.802;16.114;2024-01-11T01:42:59;77.43;;;39.50;;
48623;SDS011;75490;45.802;16.114;2024-01-11T01:45:26;79.40;;;40.47;;
48623;SDS011;75490;45.802;16.114;2024-01-11T01:47:53;93.73;;;44.10;;
48623;SDS011;75490;45.802;16.114;2024-01-11T01:50:22;118.70;;;52.70;;
48623;SDS011;75490;45.802;16.114;2024-01-11T01:52:48;119.47;;;56.50;;
48623;SDS011;75490;45.802;16.114;2024-01-11T01:55:17;131.53;;;60.67;;
48623;SDS011;75490;45.802;16.114;2024-01-11T01:57:46;110.30;;;54.33;;
48623;SDS011;75490;45.802;16.114;2024-01-11T02:00:14;124.53;;;59.10;;
48623;SDS011;75490;45.802;16.114;2024-01-11T02:02:44;138.93;;;61.07;;
48623;SDS011;75490;45.802;16.114;2024-01-11T02:05:16;129.23;;;60.70;;
48623;SDS011;75490;45.802;16.114;2024-01-11T02:07:44;149.00;;;67.23;;
48623;SDS011;75490;45.802;16.114;2024-01-11T02:10:11;159.93;;;61.23;;
48623;SDS011;75490;45.802;16.114;2024-01-11T02:12:39;167.43;;;57.50;;
48623;SDS011;75490;45.802;16.114;2024-01-11T02:15:07;139.97;;;61.73;;
48623;SDS011;75490;45.802;16.114;2024-01-11T02:17:34;123.47;;;56.10;;
48623;SDS011;75490;45.802;16.114;2024-01-11T02:20:01;133.60;;;55.87;;
48623;SDS011;75490;45.802;16.114;2024-01-11T02:22:34;125.20;;;54.80;;
48623;SDS011;75490;45.802;16.114;2024-01-11T02:25:04;141.23;;;59.97;;
48623;SDS011;75490;45.802;16.114;2024-01-11T02:27:31;131.00;;;54.60;;
48623;SDS011;75490;45.802;16.114;2024-01-11T02:30:10;161.17;;;58.33;;
48623;SDS011;75490;45.802;16.114;2024-01-11T02:32:38;156.10;;;62.23;;
48623;SDS011;75490;45.802;16.114;2024-01-11T02:35:05;128.47;;;54.90;;
48623;SDS011;75490;45.802;16.114;2024-01-11T02:37:32;148.20;;;58.30;;
48623;SDS011;75490;45.802;16.114;2024-01-11T02:40:00;166.13;;;60.07;;
48623;SDS011;75490;45.802;16.114;2024-01-11T02:42:29;162.90;;;57.73;;
48623;SDS011;75490;45.802;16.114;2024-01-11T02:44:56;152.17;;;60.03;;
48623;SDS011;75490;45.802;16.114;2024-01-11T02:47:22;113.80;;;50.97;;
48623;SDS011;75490;45.802;16.114;2024-01-11T02:49:49;139.87;;;59.47;;
48623;SDS011;75490;45.802;16.114;2024-01-11T02:52:16;135.83;;;58.47;;
48623;SDS011;75490;45.802;16.114;2024-01-11T02:54:43;158.37;;;61.47;;
48623;SDS011;75490;45.802;16.114;2024-01-11T02:57:11;117.33;;;52.67;;
48623;SDS011;75490;45.802;16.114;2024-01-11T02:59:39;144.20;;;56.47;;
48623;SDS011;75490;45.802;16.114;2024-01-11T03:02:06;114.27;;;52.20;;
48623;SDS011;75490;45.802;16.114;2024-01-11T03:04:33;152.87;;;55.57;;
48623;SDS011;75490;45.802;16.114;2024-01-11T03:07:00;142.13;;;54.87;;
48623;SDS011;75490;45.802;16.114;2024-01-11T03:09:27;129.33;;;54.93;;
48623;SDS011;75490;45.802;16.114;2024-01-11T03:11:54;140.70;;;57.57;;
48623;SDS011;75490;45.802;16.114;2024-01-11T03:14:21;133.20;;;58.00;;
48623;SDS011;75490;45.802;16.114;2024-01-11T03:16:48;149.60;;;57.43;;
48623;SDS011;75490;45.802;16.114;2024-01-11T03:19:15;109.57;;;51.20;;
48623;SDS011;75490;45.802;16.114;2024-01-11T03:21:45;104.00;;;46.97;;
48623;SDS011;75490;45.802;16.114;2024-01-11T03:24:13;107.07;;;49.77;;
48623;SDS011;75490;45.802;16.114;2024-01-11T03:26:40;119.93;;;50.67;;
48623;SDS011;75490;45.802;16.114;2024-01-11T03:29:07;106.37;;;47.40;;
48623;SDS011;75490;45.802;16.114;2024-01-11T03:31:34;103.10;;;44.27;;
48623;SDS011;75490;45.802;16.114;2024-01-11T03:34:04;110.17;;;48.60;;
48623;SDS011;75490;45.802;16.114;2024-01-11T03:36:31;97.53;;;42.23;;
48623;SDS011;75490;45.802;16.114;2024-01-11T03:38:57;92.40;;;41.17;;
48623;SDS011;75490;45.802;16.114;2024-01-11T03:41:24;100.33;;;44.67;;
48623;SDS011;75490;45.802;16.114;2024-01-11T03:43:51;128.80;;;57.63;;
48623;SDS011;75490;45.802;16.114;2024-01-11T03:46:18;108.00;;;50.30;;
48623;SDS011;75490;45.802;16.114;2024-01-11T03:48:45;116.27;;;51.97;;
48623;SDS011;75490;45.802;16.114;2024-01-11T03:51:12;129.80;;;56.10;;
48623;SDS011;75490;45.802;16.114;2024-01-11T03:53:38;105.90;;;50.40;;
48623;SDS011;75490;45.802;16.114;2024-01-11T03:56:05;106.27;;;53.47;;
48623;SDS011;75490;45.802;16.114;2024-01-11T03:58:32;109.13;;;49.93;;
48623;SDS011;75490;45.802;16.114;2024-01-11T04:00:59;101.37;;;49.10;;
48623;SDS011;75490;45.802;16.114;2024-01-11T04:03:26;103.40;;;48.73;;
48623;SDS011;75490;45.802;16.114;2024-01-11T04:05:53;94.80;;;44.53;;
48623;SDS011;75490;45.802;16.114;2024-01-11T04:08:20;80.20;;;40.93;;
48623;SDS011;75490;45.802;16.114;2024-01-11T04:10:46;93.07;;;45.70;;
48623;SDS011;75490;45.802;16.114;2024-01-11T04:13:13;85.90;;;44.20;;
48623;SDS011;75490;45.802;16.114;2024-01-11T04:15:41;94.93;;;47.70;;
48623;SDS011;75490;45.802;16.114;2024-01-11T04:18:08;95.13;;;48.70;;
48623;SDS011;75490;45.802;16.114;2024-01-11T04:20:35;106.37;;;44.83;;
48623;SDS011;75490;45.802;16.114;2024-01-11T04:23:02;101.27;;;47.63;;
48623;SDS011;75490;45.802;16.114;2024-01-11T04:25:29;103.70;;;48.37;;
48623;SDS011;75490;45.802;16.114;2024-01-11T04:27:56;89.87;;;41.20;;
48623;SDS011;75490;45.802;16.114;2024-01-11T04:30:23;109.73;;;47.43;;
48623;SDS011;75490;45.802;16.114;2024-01-11T04:32:50;96.10;;;43.47;;
48623;SDS011;75490;45.802;16.114;2024-01-11T04:35:16;91.87;;;41.57;;
48623;SDS011;75490;45.802;16.114;2024-01-11T04:37:43;86.53;;;39.93;;
48623;SDS011;75490;45.802;16.114;2024-01-11T04:40:10;100.77;;;44.57;;
48623;SDS011;75490;45.802;16.114;2024-01-11T04:42:37;106.60;;;50.00;;
48623;SDS011;75490;45.802;16.114;2024-01-11T04:45:04;108.60;;;51.63;;
48623;SDS011;75490;45.802;16.114;2024-01-11T04:47:31;120.60;;;56.77;;
48623;SDS011;75490;45.802;16.114;2024-01-11T04:49:58;80.13;;;36.10;;
48623;SDS011;75490;45.802;16.114;2024-01-11T04:52:25;92.53;;;39.73;;
48623;SDS011;75490;45.802;16.114;2024-01-11T04:54:52;92.03;;;41.43;;
48623;SDS011;75490;45.802;16.114;2024-01-11T04:57:18;82.40;;;37.93;;
48623;SDS011;75490;45.802;16.114;2024-01-11T04:59:45;87.07;;;42.17;;
48623;SDS011;75490;45.802;16.114;2024-01-11T05:02:12;87.70;;;38.53;;
48623;SDS011;75490;45.802;16.114;2024-01-11T05:04:39;118.90;;;44.60;;
48623;SDS011;75490;45.802;16.114;2024-01-11T05:07:06;99.53;;;41.37;;
48623;SDS011;75490;45.802;16.114;2024-01-11T05:09:32;143.60;;;44.57;;
48623;SDS011;75490;45.802;16.114;2024-01-11T05:11:59;97.23;;;39.03;;
48623;SDS011;75490;45.802;16.114;2024-01-11T05:14:26;113.70;;;45.77;;
48623;SDS011;75490;45.802;16.114;2024-01-11T05:16:53;104.07;;;41.67;;
48623;SDS011;75490;45.802;16.114;2024-01-11T05:19:19;119.17;;;41.27;;
48623;SDS011;75490;45.802;16.114;2024-01-11T05:21:46;147.03;;;48.93;;
48623;SDS011;75490;45.802;16.114;2024-01-11T05:24:13;77.73;;;38.23;;
48623;SDS011;75490;45.802;16.114;2024-01-11T05:26:40;81.93;;;41.30;;
48623;SDS011;75490;45.802;16.114;2024-01-11T05:29:06;191.53;;;46.73;;
48623;SDS011;75490;45.802;16.114;2024-01-11T05:31:33;157.13;;;45.70;;
48623;SDS011;75490;45.802;16.114;2024-01-11T05:34:00;140.73;;;43.10;;
48623;SDS011;75490;45.802;16.114;2024-01-11T05:36:27;181.20;;;47.03;;
48623;SDS011;75490;45.802;16.114;2024-01-11T05:38:53;126.07;;;49.67;;
48623;SDS011;75490;45.802;16.114;2024-01-11T05:41:20;102.67;;;42.83;;
48623;SDS011;75490;45.802;16.114;2024-01-11T05:43:47;87.40;;;42.57;;
48623;SDS011;75490;45.802;16.114;2024-01-11T05:46:14;110.20;;;41.53;;
48623;SDS011;75490;45.802;16.114;2024-01-11T05:48:41;99.23;;;40.80;;
48623;SDS011;75490;45.802;16.114;2024-01-11T05:51:08;76.70;;;38.03;;
48623;SDS011;75490;45.802;16.114;2024-01-11T05:53:35;104.63;;;49.07;;
48623;SDS011;75490;45.802;16.114;2024-01-11T05:56:06;114.60;;;49.73;;
48623;SDS011;75490;45.802;16.114;2024-01-11T05:58:34;127.20;;;53.40;;
48623;SDS011;75490;45.802;16.114;2024-01-11T06:01:03;102.00;;;49.80;;
48623;SDS011;75490;45.802;16.114;2024-01-11T06:03:30;126.13;;;58.73;;
48623;SDS011;75490;45.802;16.114;2024-01-11T06:06:00;105.20;;;54.47;;
48623;SDS011;75490;45.802;16.114;2024-01-11T06:08:29;105.57;;;50.20;;
48623;SDS011;75490;45.802;16.114;2024-01-11T06:10:57;139.80;;;58.27;;
48623;SDS011;75490;45.802;16.114;2024-01-11T06:13:24;100.47;;;48.60;;
48623;SDS011;75490;45.802;16.114;2024-01-11T06:15:51;108.77;;;53.03;;
48623;SDS011;75490;45.802;16.114;2024-01-11T06:18:18;85.70;;;44.97;;
48623;SDS011;75490;45.802;16.114;2024-01-11T06:20:44;96.27;;;48.63;;
48623;SDS011;75490;45.802;16.114;2024-01-11T06:23:11;88.30;;;45.03;;
48623;SDS011;75490;45.802;16.114;2024-01-11T06:25:38;78.90;;;41.03;;
48623;SDS011;75490;45.802;16.114;2024-01-11T06:28:05;88.37;;;43.63;;
48623;SDS011;75490;45.802;16.114;2024-01-11T06:30:33;86.47;;;39.97;;
48623;SDS011;75490;45.802;16.114;2024-01-11T06:33:00;91.53;;;41.93;;
48623;SDS011;75490;45.802;16.114;2024-01-11T06:35:27;77.90;;;38.07;;
48623;SDS011;75490;45.802;16.114;2024-01-11T06:37:53;94.13;;;45.57;;
48623;SDS011;75490;45.802;16.114;2024-01-11T06:40:20;84.97;;;40.50;;
48623;SDS011;75490;45.802;16.114;2024-01-11T06:42:47;81.07;;;40.33;;
48623;SDS011;75490;45.802;16.114;2024-01-11T06:45:13;90.17;;;42.30;;
48623;SDS011;75490;45.802;16.114;2024-01-11T06:47:40;95.10;;;44.37;;
48623;SDS011;75490;45.802;16.114;2024-01-11T06:50:07;88.43;;;45.17;;
48623;SDS011;75490;45.802;16.114;2024-01-11T06:52:34;85.77;;;41.30;;
48623;SDS011;75490;45.802;16.114;2024-01-11T06:55:01;97.03;;;47.60;;
48623;SDS011;75490;45.802;16.114;2024-01-11T06:57:28;86.93;;;43.83;;
48623;SDS011;75490;45.802;16.114;2024-01-11T06:59:55;82.33;;;45.47;;
48623;SDS011;75490;45.802;16.114;2024-01-11T07:02:22;106.87;;;52.80;;
48623;SDS011;75490;45.802;16.114;2024-01-11T07:04:49;110.07;;;57.27;;
48623;SDS011;75490;45.802;16.114;2024-01-11T07:07:16;115.97;;;57.57;;
48623;SDS011;75490;45.802;16.114;2024-01-11T07:09:43;118.90;;;59.07;;
48623;SDS011;75490;45.802;16.114;2024-01-11T07:12:11;111.83;;;54.23;;
48623;SDS011;75490;45.802;16.114;2024-01-11T07:14:38;103.30;;;51.00;;
48623;SDS011;75490;45.802;16.114;2024-01-11T07:17:05;130.80;;;57.53;;
48623;SDS011;75490;45.802;16.114;2024-01-11T07:19:32;101.27;;;47.67;;
48623;SDS011;75490;45.802;16.114;2024-01-11T07:21:58;109.60;;;54.20;;
48623;SDS011;75490;45.802;16.114;2024-01-11T07:24:26;95.10;;;47.40;;
48623;SDS011;75490;45.802;16.114;2024-01-11T07:26:52;123.03;;;54.97;;
48623;SDS011;75490;45.802;16.114;2024-01-11T07:29:20;102.20;;;51.53;;
48623;SDS011;75490;45.802;16.114;2024-01-11T07:31:46;83.37;;;42.67;;
48623;SDS011;75490;45.802;16.114;2024-01-11T07:34:13;87.33;;;43.10;;
48623;SDS011;75490;45.802;16.114;2024-01-11T07:36:40;82.07;;;38.17;;
48623;SDS011;75490;45.802;16.114;2024-01-11T07:39:07;83.13;;;36.40;;
48623;SDS011;75490;45.802;16.114;2024-01-11T07:41:33;86.47;;;41.80;;
48623;SDS011;75490;45.802;16.114;2024-01-11T07:44:00;78.97;;;40.90;;
48623;SDS011;75490;45.802;16.114;2024-01-11T07:46:27;79.07;;;40.33;;
48623;SDS011;75490;45.802;16.114;2024-01-11T07:48:54;76.77;;;36.93;;
48623;SDS011;75490;45.802;16.114;2024-01-11T07:51:21;74.27;;;39.70;;
48623;SDS011;75490;45.802;16.114;2024-01-11T07:53:48;85.50;;;40.40;;
48623;SDS011;75490;45.802;16.114;2024-01-11T07:56:14;95.53;;;42.07;;
48623;SDS011;75490;45.802;16.114;2024-01-11T07:58:41;98.20;;;48.27;;
48623;SDS011;75490;45.802;16.114;2024-01-11T08:01:09;93.73;;;44.83;;
48623;SDS011;75490;45.802;16.114;2024-01-11T08:03:35;88.23;;;44.87;;
48623;SDS011;75490;45.802;16.114;2024-01-11T08:06:02;72.23;;;34.87;;
48623;SDS011;75490;45.802;16.114;2024-01-11T08:08:29;74.83;;;37.07;;
48623;SDS011;75490;45.802;16.114;2024-01-11T08:10:56;110.00;;;48.97;;
48623;SDS011;75490;45.802;16.114;2024-01-11T08:13:23;100.17;;;43.70;;
48623;SDS011;75490;45.802;16.114;2024-01-11T08:15:50;107.50;;;48.80;;
48623;SDS011;75490;45.802;16.114;2024-01-11T08:18:19;100.93;;;46.43;;
48623;SDS011;75490;45.802;16.114;2024-01-11T08:20:46;111.93;;;49.40;;
48623;SDS011;75490;45.802;16.114;2024-01-11T08:23:13;98.00;;;45.43;;
48623;SDS011;75490;45.802;16.114;2024-01-11T08:25:39;111.63;;;51.83;;
48623;SDS011;75490;45.802;16.114;2024-01-11T08:28:06;87.83;;;40.03;;
48623;SDS011;75490;45.802;16.114;2024-01-11T08:30:33;95.17;;;47.27;;
48623;SDS011;75490;45.802;16.114;2024-01-11T08:33:00;89.70;;;46.27;;
48623;SDS011;75490;45.802;16.114;2024-01-11T08:35:27;99.53;;;47.17;;
48623;SDS011;75490;45.802;16.114;2024-01-11T08:37:54;102.73;;;48.23;;
48623;SDS011;75490;45.802;16.114;2024-01-11T08:40:21;97.27;;;50.77;;
48623;SDS011;75490;45.802;16.114;2024-01-11T08:42:48;128.43;;;69.40;;
48623;SDS011;75490;45.802;16.114;2024-01-11T08:45:14;104.53;;;53.00;;
48623;SDS011;75490;45.802;16.114;2024-01-11T08:47:45;107.83;;;55.73;;
48623;SDS011;75490;45.802;16.114;2024-01-11T08:50:12;113.33;;;56.67;;
48623;SDS011;75490;45.802;16.114;2024-01-11T08:52:40;110.53;;;54.47;;
48623;SDS011;75490;45.802;16.114;2024-01-11T08:55:07;108.37;;;53.63;;
48623;SDS011;75490;45.802;16.114;2024-01-11T08:57:35;117.73;;;54.33;;
48623;SDS011;75490;45.802;16.114;2024-01-11T09:00:03;108.13;;;52.33;;
48623;SDS011;75490;45.802;16.114;2024-01-11T09:02:30;97.47;;;49.67;;
48623;SDS011;75490;45.802;16.114;2024-01-11T09:04:57;106.83;;;53.53;;
48623;SDS011;75490;45.802;16.114;2024-01-11T09:07:24;107.20;;;54.10;;
48623;SDS011;75490;45.802;16.114;2024-01-11T09:09:51;105.20;;;53.07;;
48623;SDS011;75490;45.802;16.114;2024-01-11T09:12:18;97.50;;;48.70;;
48623;SDS011;75490;45.802;16.114;2024-01-11T09:14:45;109.77;;;52.70;;
48623;SDS011;75490;45.802;16.114;2024-01-11T09:17:12;112.43;;;55.30;;
48623;SDS011;75490;45.802;16.114;2024-01-11T09:19:38;102.43;;;49.87;;
48623;SDS011;75490;45.802;16.114;2024-01-11T09:22:06;115.57;;;55.27;;
48623;SDS011;75490;45.802;16.114;2024-01-11T09:24:36;111.27;;;54.67;;
48623;SDS011;75490;45.802;16.114;2024-01-11T09:27:03;107.13;;;52.67;;
48623;SDS011;75490;45.802;16.114;2024-01-11T09:29:30;112.27;;;52.30;;
48623;SDS011;75490;45.802;16.114;2024-01-11T09:31:58;105.57;;;52.30;;
48623;SDS011;75490;45.802;16.114;2024-01-11T09:34:27;114.73;;;58.53;;
48623;SDS011;75490;45.802;16.114;2024-01-11T09:36:54;119.43;;;55.93;;
48623;SDS011;75490;45.802;16.114;2024-01-11T09:39:25;111.43;;;55.70;;
48623;SDS011;75490;45.802;16.114;2024-01-11T09:41:59;114.17;;;60.13;;
48623;SDS011;75490;45.802;16.114;2024-01-11T09:44:33;116.65;;;58.17;;
48623;SDS011;75490;45.802;16.114;2024-01-11T09:47:01;110.80;;;51.97;;
48623;SDS011;75490;45.802;16.114;2024-01-11T09:49:29;117.63;;;59.13;;
48623;SDS011;75490;45.802;16.114;2024-01-11T09:51:56;115.70;;;58.93;;
48623;SDS011;75490;45.802;16.114;2024-01-11T09:54:23;115.13;;;59.97;;
48623;SDS011;75490;45.802;16.114;2024-01-11T09:56:55;102.90;;;51.60;;
48623;SDS011;75490;45.802;16.114;2024-01-11T09:59:26;112.40;;;54.87;;
48623;SDS011;75490;45.802;16.114;2024-01-11T10:01:54;135.37;;;63.57;;
48623;SDS011;75490;45.802;16.114;2024-01-11T10:04:20;120.37;;;61.97;;
48623;SDS011;75490;45.802;16.114;2024-01-11T10:06:47;106.53;;;55.53;;
48623;SDS011;75490;45.802;16.114;2024-01-11T10:09:17;110.90;;;55.70;;
48623;SDS011;75490;45.802;16.114;2024-01-11T10:11:44;116.07;;;57.67;;
48623;SDS011;75490;45.802;16.114;2024-01-11T10:14:12;111.10;;;55.70;;
48623;SDS011;75490;45.802;16.114;2024-01-11T10:16:40;110.97;;;56.27;;
48623;SDS011;75490;45.802;16.114;2024-01-11T10:19:08;115.97;;;56.43;;
48623;SDS011;75490;45.802;16.114;2024-01-11T10:21:39;121.17;;;58.93;;
48623;SDS011;75490;45.802;16.114;2024-01-11T10:24:06;122.83;;;62.33;;
48623;SDS011;75490;45.802;16.114;2024-01-11T10:26:33;117.37;;;58.63;;
48623;SDS011;75490;45.802;16.114;2024-01-11T10:28:59;106.37;;;55.97;;
48623;SDS011;75490;45.802;16.114;2024-01-11T10:31:30;113.57;;;62.13;;
48623;SDS011;75490;45.802;16.114;2024-01-11T10:33:57;127.43;;;65.13;;
48623;SDS011;75490;45.802;16.114;2024-01-11T10:36:24;119.13;;;59.47;;
48623;SDS011;75490;45.802;16.114;2024-01-11T10:38:52;131.40;;;66.80;;
48623;SDS011;75490;45.802;16.114;2024-01-11T10:41:20;124.33;;;63.63;;
48623;SDS011;75490;45.802;16.114;2024-01-11T10:43:47;115.27;;;59.43;;
48623;SDS011;75490;45.802;16.114;2024-01-11T10:46:15;119.40;;;59.43;;
48623;SDS011;75490;45.802;16.114;2024-01-11T10:48:48;105.50;;;56.53;;
48623;SDS011;75490;45.802;16.114;2024-01-11T10:51:22;111.30;;;53.47;;
48623;SDS011;75490;45.802;16.114;2024-01-11T10:53:50;101.53;;;51.53;;
48623;SDS011;75490;45.802;16.114;2024-01-11T10:56:19;100.00;;;49.77;;
48623;SDS011;75490;45.802;16.114;2024-01-11T10:58:46;81.87;;;43.13;;
48623;SDS011;75490;45.802;16.114;2024-01-11T11:01:14;79.40;;;40.63;;
48623;SDS011;75490;45.802;16.114;2024-01-11T11:03:43;82.57;;;43.43;;
48623;SDS011;75490;45.802;16.114;2024-01-11T11:06:12;68.10;;;35.37;;
48623;SDS011;75490;45.802;16.114;2024-01-11T11:08:39;87.57;;;44.53;;
48623;SDS011;75490;45.802;16.114;2024-01-11T11:11:06;86.13;;;41.30;;
48623;SDS011;75490;45.802;16.114;2024-01-11T11:13:34;95.50;;;46.93;;
48623;SDS011;75490;45.802;16.114;2024-01-11T11:16:03;102.03;;;51.17;;
48623;SDS011;75490;45.802;16.114;2024-01-11T11:18:31;97.83;;;49.60;;
48623;SDS011;75490;45.802;16.114;2024-01-11T11:21:06;92.45;;;46.58;;
48623;SDS011;75490;45.802;16.114;2024-01-11T11:23:37;96.73;;;46.27;;
48623;SDS011;75490;45.802;16.114;2024-01-11T11:26:05;88.30;;;45.40;;
48623;SDS011;75490;45.802;16.114;2024-01-11T11:28:34;91.80;;;44.43;;
48623;SDS011;75490;45.802;16.114;2024-01-11T11:31:03;84.80;;;43.63;;
48623;SDS011;75490;45.802;16.114;2024-01-11T11:33:29;79.37;;;40.87;;
48623;SDS011;75490;45.802;16.114;2024-01-11T11:35:58;85.27;;;41.30;;
48623;SDS011;75490;45.802;16.114;2024-01-11T11:38:30;78.10;;;39.57;;
48623;SDS011;75490;45.802;16.114;2024-01-11T11:40:58;74.55;;;37.70;;
48623;SDS011;75490;45.802;16.114;2024-01-11T11:43:27;82.40;;;39.07;;
48623;SDS011;75490;45.802;16.114;2024-01-11T11:45:54;63.75;;;33.10;;
48623;SDS011;75490;45.802;16.114;2024-01-11T11:51:11;60.97;;;30.37;;
48623;SDS011;75490;45.802;16.114;2024-01-11T11:53:38;52.20;;;27.77;;
48623;SDS011;75490;45.802;16.114;2024-01-11T11:56:07;46.60;;;25.93;;
48623;SDS011;75490;45.802;16.114;2024-01-11T11:58:38;51.05;;;25.27;;
48623;SDS011;75490;45.802;16.114;2024-01-11T12:01:05;49.17;;;25.08;;
48623;SDS011;75490;45.802;16.114;2024-01-11T12:03:33;59.63;;;27.37;;
48623;SDS011;75490;45.802;16.114;2024-01-11T12:06:08;49.70;;;24.17;;
48623;SDS011;75490;45.802;16.114;2024-01-11T12:08:37;49.20;;;25.37;;
48623;SDS011;75490;45.802;16.114;2024-01-11T12:11:04;46.08;;;22.83;;
48623;SDS011;75490;45.802;16.114;2024-01-11T12:13:31;46.95;;;25.27;;
48623;SDS011;75490;45.802;16.114;2024-01-11T12:15:59;45.87;;;23.67;;
48623;SDS011;75490;45.802;16.114;2024-01-11T12:18:26;38.50;;;21.42;;
48623;SDS011;75490;45.802;16.114;2024-01-11T12:20:52;44.92;;;21.52;;
48623;SDS011;75490;45.802;16.114;2024-01-11T12:23:19;34.45;;;19.08;;
48623;SDS011;75490;45.802;16.114;2024-01-11T12:25:47;37.88;;;19.70;;
48623;SDS011;75490;45.802;16.114;2024-01-11T12:28:14;37.35;;;19.63;;
48623;SDS011;75490;45.802;16.114;2024-01-11T12:30:41;40.58;;;20.63;;
48623;SDS011;75490;45.802;16.114;2024-01-11T12:33:08;43.30;;;22.13;;
48623;SDS011;75490;45.802;16.114;2024-01-11T12:35:36;42.58;;;21.15;;
48623;SDS011;75490;45.802;16.114;2024-01-11T12:38:04;36.35;;;18.80;;
48623;SDS011;75490;45.802;16.114;2024-01-11T12:40:38;46.47;;;19.08;;
48623;SDS011;75490;45.802;16.114;2024-01-11T12:43:05;38.78;;;20.38;;
48623;SDS011;75490;45.802;16.114;2024-01-11T12:45:34;35.55;;;18.52;;
48623;SDS011;75490;45.802;16.114;2024-01-11T12:48:02;35.03;;;20.00;;
48623;SDS011;75490;45.802;16.114;2024-01-11T12:50:32;40.75;;;20.73;;
48623;SDS011;75490;45.802;16.114;2024-01-11T12:55:39;40.17;;;20.08;;
48623;SDS011;75490;45.802;16.114;2024-01-11T12:58:08;43.05;;;19.80;;
48623;SDS011;75490;45.802;16.114;2024-01-11T13:00:38;35.23;;;18.53;;
48623;SDS011;75490;45.802;16.114;2024-01-11T13:03:05;39.40;;;19.23;;
48623;SDS011;75490;45.802;16.114;2024-01-11T13:05:32;33.72;;;18.45;;
48623;SDS011;75490;45.802;16.114;2024-01-11T13:08:02;37.65;;;20.20;;
48623;SDS011;75490;45.802;16.114;2024-01-11T13:10:30;38.80;;;21.38;;
48623;SDS011;75490;45.802;16.114;2024-01-11T13:12:58;47.10;;;22.02;;
48623;SDS011;75490;45.802;16.114;2024-01-11T13:15:25;34.85;;;18.52;;
48623;SDS011;75490;45.802;16.114;2024-01-11T13:17:52;38.40;;;21.80;;
48623;SDS011;75490;45.802;16.114;2024-01-11T13:20:19;31.95;;;16.02;;
48623;SDS011;75490;45.802;16.114;2024-01-11T13:22:46;46.83;;;24.02;;
48623;SDS011;75490;45.802;16.114;2024-01-11T13:25:13;43.90;;;24.27;;
48623;SDS011;75490;45.802;16.114;2024-01-11T13:27:40;39.15;;;22.65;;
48623;SDS011;75490;45.802;16.114;2024-01-11T13:30:07;51.30;;;25.83;;
48623;SDS011;75490;45.802;16.114;2024-01-11T13:32:34;49.60;;;24.85;;
48623;SDS011;75490;45.802;16.114;2024-01-11T13:35:01;50.47;;;24.55;;
48623;SDS011;75490;45.802;16.114;2024-01-11T13:37:28;51.67;;;26.35;;
48623;SDS011;75490;45.802;16.114;2024-01-11T13:39:55;63.10;;;35.22;;
48623;SDS011;75490;45.802;16.114;2024-01-11T13:42:22;51.80;;;25.60;;
48623;SDS011;75490;45.802;16.114;2024-01-11T13:44:48;48.25;;;24.38;;
48623;SDS011;75490;45.802;16.114;2024-01-11T13:47:15;46.78;;;24.40;;
48623;SDS011;75490;45.802;16.114;2024-01-11T13:49:42;47.38;;;24.90;;
48623;SDS011;75490;45.802;16.114;2024-01-11T13:52:09;45.05;;;23.65;;
48623;SDS011;75490;45.802;16.114;2024-01-11T13:54:39;43.95;;;23.10;;
48623;SDS011;75490;45.802;16.114;2024-01-11T13:57:05;39.80;;;21.30;;
48623;SDS011;75490;45.802;16.114;2024-01-11T13:59:33;46.05;;;25.00;;
48623;SDS011;75490;45.802;16.114;2024-01-11T14:02:00;47.38;;;25.30;;
48623;SDS011;75490;45.802;16.114;2024-01-11T14:04:27;52.38;;;27.40;;
48623;SDS011;75490;45.802;16.114;2024-01-11T14:06:53;45.78;;;24.48;;
48623;SDS011;75490;45.802;16.114;2024-01-11T14:09:20;70.15;;;35.35;;